Main page
METAR-TAF:

METAR-TAF

Airports :

Grider Field

Pine Bluff, Arkansas, United States

latitude: 34-10-30N, longitude: 091-56-05W, elevation: 207 ft

Current weather observation

The report was made 27 minutes ago, at 04:53 UTC
Wind 6 mph from the East/Northeast
Temperature 79°F
Humidity 84%
Pressure 30.17 in. Hg
Visibility: 10 miles
Scattered clouds at a height of 6000 ft

METAR: KPBF 200453Z AUTO 07005KT 10SM SCT060 26/23 A3017 RMK AO2 SLP214 T02610228

Time: 00:20 (05:20 UTC)

Forecast

The report was made 5 hours and 51 minutes ago, at 23:29 UTC
Forecast valid from 20 at 00 UTC to 20 at 24 UTC
Wind 7 mph from the East/Northeast
Visibility: 6 miles
Scattered clouds at a height of 10000 ft
Broken clouds at a height of 25000 ft
From 20 at 1500 UTC
Wind 9 mph from the East
Visibility: 6 miles
Scattered clouds at a height of 25000 ft

TAF: KPBF 192329Z 2000/2024 07006KT P6SM SCT100 BKN250 FM201500 09008KT P6SM SCT250

Weather observations and forecasts of more than 4000 airports (METAR and TAF reports).

The available stations are represented by yellow and red dots on the map.

Hover mouse over dot to see the name of the station.

Then click to see weather observations and forecasts.

To change the map : click on the green buttons with a black cross to zoom in, on the green button with a dash to zoom out, or on the green arrows for adjacent maps.


METAR-TAF: